createdAt,value
2023-05-24T00:00:46.668Z,25.80
2023-05-24T00:03:15.442Z,25.80
2023-05-24T00:05:46.689Z,25.80
2023-05-24T00:08:15.949Z,25.80
2023-05-24T00:10:43.995Z,25.80
2023-05-24T00:13:11.954Z,25.80
2023-05-24T00:15:39.677Z,25.70
2023-05-24T00:18:07.560Z,25.70
2023-05-24T00:20:35.510Z,25.70
2023-05-24T00:23:04.668Z,25.80
2023-05-24T00:25:32.492Z,25.70
2023-05-24T00:28:00.491Z,25.70
2023-05-24T00:30:28.463Z,25.70
2023-05-24T00:32:56.643Z,25.80
2023-05-24T00:35:24.608Z,25.70
2023-05-24T00:37:54.545Z,25.70
2023-05-24T00:40:23.696Z,25.70
2023-05-24T00:42:51.546Z,25.70
2023-05-24T00:45:19.308Z,25.70
2023-05-24T00:47:47.758Z,25.70
2023-05-24T00:50:17.047Z,25.70
2023-05-24T00:52:44.972Z,25.70
2023-05-24T00:55:13.454Z,25.70
2023-05-24T00:57:42.730Z,25.70
2023-05-24T01:00:12.570Z,25.70
2023-05-24T01:02:40.490Z,25.70
2023-05-24T01:05:13.523Z,25.70
2023-05-24T01:07:52.569Z,25.70
2023-05-24T01:10:32.236Z,25.70
2023-05-24T01:13:08.291Z,25.70
2023-05-24T01:15:46.249Z,25.70
2023-05-24T01:18:18.397Z,25.70
2023-05-24T01:20:48.316Z,25.70
2023-05-24T01:23:28.949Z,25.70
2023-05-24T01:26:18.658Z,25.70
2023-05-24T01:28:49.300Z,25.70
2023-05-24T01:31:18.750Z,25.70
2023-05-24T01:33:46.603Z,25.70
2023-05-24T01:36:14.370Z,25.70
2023-05-24T01:38:42.473Z,25.70
2023-05-24T01:41:20.852Z,25.70
2023-05-24T01:43:57.116Z,25.70
2023-05-24T01:46:35.737Z,25.70
2023-05-24T01:49:12.003Z,25.70
2023-05-24T01:51:49.317Z,25.70
2023-05-24T01:54:20.673Z,25.70
2023-05-24T01:56:50.457Z,25.70
2023-05-24T01:59:21.300Z,25.70
2023-05-24T02:01:49.598Z,25.70
2023-05-24T02:04:17.466Z,25.70
2023-05-24T02:06:45.891Z,25.70
2023-05-24T02:09:13.699Z,25.70
2023-05-24T02:11:41.474Z,25.70
2023-05-24T02:14:09.265Z,25.60
2023-05-24T02:16:42.678Z,25.70
2023-05-24T02:19:10.755Z,25.70
2023-05-24T02:21:38.520Z,25.70
2023-05-24T02:24:07.583Z,25.60
2023-05-24T02:26:35.757Z,25.70
2023-05-24T02:29:03.637Z,25.70
2023-05-24T02:31:31.705Z,25.60
2023-05-24T02:34:00.952Z,25.60
2023-05-24T02:36:28.902Z,25.60
2023-05-24T02:38:56.736Z,25.60
2023-05-24T02:41:24.557Z,25.60
2023-05-24T02:43:52.322Z,25.60
2023-05-24T02:46:20.436Z,25.60
2023-05-24T02:48:49.634Z,25.60
2023-05-24T02:51:18.781Z,25.60
2023-05-24T02:53:46.560Z,25.60
2023-05-24T02:56:17.249Z,25.60
2023-05-24T02:58:46.033Z,25.60
2023-05-24T03:01:14.073Z,25.60
2023-05-24T03:03:42.345Z,25.60
2023-05-24T03:06:13.905Z,25.60
2023-05-24T03:08:43.000Z,25.60
2023-05-24T03:11:10.871Z,25.60
2023-05-24T03:13:38.727Z,25.60
2023-05-24T03:16:07.386Z,25.60
2023-05-24T03:18:35.996Z,25.60
2023-05-24T03:21:03.816Z,25.60
2023-05-24T03:23:31.635Z,25.60
2023-05-24T03:26:00.840Z,25.60
2023-05-24T03:28:30.055Z,25.60
2023-05-24T03:30:58.421Z,25.60
2023-05-24T03:33:26.266Z,25.60
2023-05-24T03:35:54.075Z,25.60
2023-05-24T03:38:21.902Z,25.60
2023-05-24T03:40:49.744Z,25.60
2023-05-24T03:43:20.189Z,25.60
2023-05-24T03:45:59.217Z,25.60
2023-05-24T03:48:27.019Z,25.60
2023-05-24T03:50:54.790Z,25.60
2023-05-24T03:53:23.440Z,25.60
2023-05-24T03:55:51.574Z,25.60
2023-05-24T03:58:20.905Z,25.60
2023-05-24T04:00:48.654Z,25.60
2023-05-24T04:03:16.559Z,25.60
2023-05-24T04:05:45.076Z,25.60
2023-05-24T04:08:14.923Z,25.60
2023-05-24T04:10:43.072Z,25.60
2023-05-24T04:13:12.758Z,25.60
2023-05-24T04:15:41.953Z,25.60
2023-05-24T04:18:12.041Z,25.60
2023-05-24T04:20:39.998Z,25.50
2023-05-24T04:23:07.989Z,25.60
2023-05-24T04:25:35.766Z,25.50
2023-05-24T04:28:06.375Z,25.60
2023-05-24T04:30:35.918Z,25.50
2023-05-24T04:33:05.425Z,25.50
2023-05-24T04:35:33.598Z,25.50
2023-05-24T04:38:01.349Z,25.50
2023-05-24T04:40:29.075Z,25.50
2023-05-24T04:42:56.864Z,25.50
2023-05-24T04:45:24.924Z,25.50
2023-05-24T04:47:52.783Z,25.50
2023-05-24T04:50:21.975Z,25.50
2023-05-24T04:52:49.736Z,25.50
2023-05-24T04:55:17.601Z,25.50
2023-05-24T04:57:45.354Z,25.50
2023-05-24T05:00:14.330Z,25.50
2023-05-24T05:02:42.145Z,25.50
2023-05-24T05:05:10.398Z,25.50
2023-05-24T05:07:40.240Z,25.50
2023-05-24T05:10:09.504Z,25.50
2023-05-24T05:12:37.287Z,25.50
2023-05-24T05:15:05.719Z,25.50
2023-05-24T05:17:33.479Z,25.50
2023-05-24T05:20:01.310Z,25.50
2023-05-24T05:22:30.663Z,25.60
2023-05-24T05:25:01.616Z,25.50
2023-05-24T05:27:30.773Z,25.50
2023-05-24T05:29:58.575Z,25.50
2023-05-24T05:32:26.441Z,25.50
2023-05-24T05:34:54.214Z,25.50
2023-05-24T05:37:21.935Z,25.40
2023-05-24T05:39:49.752Z,25.40
2023-05-24T05:42:18.849Z,25.30
2023-05-24T05:44:46.609Z,25.20
2023-05-24T05:47:14.406Z,25.20
2023-05-24T05:49:42.176Z,25.10
2023-05-24T05:52:09.932Z,25.10
2023-05-24T05:54:37.673Z,25.10
2023-05-24T05:57:08.011Z,25.00
2023-05-24T05:59:38.080Z,25.00
2023-05-24T06:02:07.469Z,25.00
2023-05-24T06:04:35.356Z,25.00
2023-05-24T06:07:03.139Z,24.90
2023-05-24T06:09:30.891Z,24.80
2023-05-24T06:11:58.671Z,24.80
2023-05-24T06:14:26.729Z,24.80
2023-05-24T06:16:57.303Z,24.70
2023-05-24T06:19:26.968Z,24.60
2023-05-24T06:21:54.720Z,24.60
2023-05-24T06:24:22.652Z,24.60
2023-05-24T06:26:53.171Z,24.50
2023-05-24T06:29:21.775Z,24.50
2023-05-24T06:31:50.186Z,24.40
2023-05-24T06:34:21.086Z,24.30
2023-05-24T06:36:50.967Z,24.20
2023-05-24T06:39:18.847Z,24.20
2023-05-24T06:41:47.118Z,24.20
2023-05-24T06:44:16.300Z,24.20
2023-05-24T06:46:44.107Z,24.20
2023-05-24T06:49:12.828Z,24.20
2023-05-24T06:51:42.031Z,24.30
2023-05-24T06:54:09.806Z,24.30
2023-05-24T06:56:37.560Z,24.40
2023-05-24T06:59:05.532Z,24.40
2023-05-24T07:01:33.770Z,24.40
2023-05-24T07:04:01.595Z,24.40
2023-05-24T07:06:29.366Z,24.40
2023-05-24T07:08:58.455Z,24.40
2023-05-24T07:11:27.390Z,24.40
2023-05-24T07:13:55.189Z,24.50
2023-05-24T07:16:22.996Z,24.40
2023-05-24T07:18:50.779Z,24.40
2023-05-24T07:21:18.578Z,24.40
2023-05-24T07:23:46.400Z,24.40
2023-05-24T07:26:15.827Z,24.40
2023-05-24T07:28:43.600Z,24.40
2023-05-24T07:31:11.665Z,24.40
2023-05-24T07:33:39.906Z,24.40
2023-05-24T07:36:08.677Z,24.40
2023-05-24T07:38:36.921Z,24.40
2023-05-24T07:41:05.045Z,24.50
2023-05-24T07:43:34.223Z,24.50
2023-05-24T07:46:02.060Z,24.50
2023-05-24T07:48:29.879Z,24.50
2023-05-24T07:50:57.615Z,24.50
2023-05-24T07:53:25.396Z,24.60
2023-05-24T07:55:53.138Z,24.60
2023-05-24T07:58:20.868Z,24.60
2023-05-24T08:00:50.000Z,24.60
2023-05-24T08:03:18.312Z,24.60
2023-05-24T08:05:46.222Z,24.60
2023-05-24T08:08:14.580Z,24.60
2023-05-24T08:10:42.346Z,24.60
2023-05-24T08:13:10.094Z,24.60
2023-05-24T08:15:37.916Z,24.60
2023-05-24T08:18:07.034Z,24.60
2023-05-24T08:20:36.582Z,24.60
2023-05-24T08:23:04.480Z,24.60
2023-05-24T08:25:32.876Z,24.70
2023-05-24T08:28:00.978Z,24.70
2023-05-24T08:30:29.003Z,24.70
2023-05-24T08:32:58.026Z,24.70
2023-05-24T08:35:27.134Z,24.80
2023-05-24T08:37:54.863Z,24.80
2023-05-24T08:40:23.868Z,24.80
2023-05-24T08:42:53.282Z,24.80
2023-05-24T08:45:23.084Z,24.80
2023-05-24T08:47:52.524Z,24.80
2023-05-24T08:50:21.133Z,24.90
2023-05-24T08:52:50.622Z,24.90
2023-05-24T08:55:18.570Z,24.90
2023-05-24T08:57:47.628Z,24.90
2023-05-24T09:00:16.630Z,25.00
2023-05-24T09:02:46.654Z,25.00
2023-05-24T09:05:16.963Z,25.00
2023-05-24T09:07:46.189Z,25.00
2023-05-24T09:10:15.755Z,25.00
2023-05-24T09:12:46.622Z,25.00
2023-05-24T09:15:14.476Z,25.00
2023-05-24T09:17:42.213Z,25.00
2023-05-24T09:20:11.805Z,25.00
2023-05-24T09:22:43.034Z,25.00
2023-05-24T09:25:13.834Z,25.00
2023-05-24T09:27:45.506Z,25.00
2023-05-24T09:30:16.304Z,25.00
2023-05-24T09:32:56.518Z,25.10
2023-05-24T09:35:24.763Z,25.00
2023-05-24T09:37:57.190Z,25.00
2023-05-24T09:40:25.587Z,25.00
2023-05-24T09:43:06.027Z,25.10
2023-05-24T09:45:34.133Z,25.00
2023-05-24T09:48:05.271Z,25.00
2023-05-24T09:50:33.392Z,25.10
2023-05-24T09:53:01.173Z,25.10
2023-05-24T09:55:29.074Z,25.10
2023-05-24T09:58:05.716Z,25.10
2023-05-24T10:00:36.587Z,25.10
2023-05-24T10:03:07.077Z,25.20
2023-05-24T10:05:36.385Z,25.10
2023-05-24T10:08:05.962Z,25.20
2023-05-24T10:10:34.822Z,25.20
2023-05-24T10:13:04.547Z,25.20
2023-05-24T10:15:32.596Z,25.20
2023-05-24T10:18:01.773Z,25.30
2023-05-24T10:20:29.999Z,25.20
2023-05-24T10:23:01.501Z,25.20
2023-05-24T10:25:30.467Z,25.30
2023-05-24T10:27:59.687Z,25.30
2023-05-24T10:30:35.606Z,25.30
2023-05-24T10:33:05.314Z,25.30
2023-05-24T10:35:36.962Z,25.30
2023-05-24T10:38:07.440Z,25.30
2023-05-24T10:40:36.061Z,25.30
2023-05-24T10:43:06.148Z,25.30
2023-05-24T10:45:38.830Z,25.30
2023-05-24T10:48:32.663Z,25.30
2023-05-24T10:51:02.701Z,25.30
2023-05-24T10:53:40.799Z,25.30
2023-05-24T10:56:10.426Z,25.30
2023-05-24T10:58:58.714Z,25.30
2023-05-24T11:01:28.574Z,25.30
2023-05-24T11:04:10.298Z,25.30
2023-05-24T11:06:49.400Z,25.30
2023-05-24T11:09:19.902Z,25.30
2023-05-24T11:11:49.711Z,25.40
2023-05-24T11:14:20.684Z,25.40
2023-05-24T11:16:51.272Z,25.40
2023-05-24T11:19:20.372Z,25.30
2023-05-24T11:21:50.006Z,25.40
2023-05-24T11:24:18.633Z,25.40
2023-05-24T11:26:46.885Z,25.40
2023-05-24T11:29:17.550Z,25.40
2023-05-24T11:31:50.650Z,25.40
2023-05-24T11:34:18.522Z,25.40
2023-05-24T11:36:46.985Z,25.40
2023-05-24T11:39:16.022Z,25.40
2023-05-24T11:41:43.926Z,25.40
2023-05-24T11:44:13.504Z,25.40
2023-05-24T11:46:44.082Z,25.50
2023-05-24T11:49:15.745Z,25.40
2023-05-24T11:51:44.484Z,25.40
2023-05-24T11:54:12.593Z,25.50
2023-05-24T11:56:40.343Z,25.50
2023-05-24T11:59:15.146Z,25.50
2023-05-24T12:01:43.629Z,25.50
2023-05-24T12:04:12.921Z,25.50
2023-05-24T12:06:44.441Z,25.50
2023-05-24T12:09:14.191Z,25.50
2023-05-24T12:11:43.617Z,25.50
2023-05-24T12:14:15.143Z,25.50
2023-05-24T12:16:43.925Z,25.50
2023-05-24T12:19:31.610Z,25.50
2023-05-24T12:22:04.873Z,25.50
2023-05-24T12:24:32.982Z,25.60
2023-05-24T12:27:02.914Z,25.60
2023-05-24T12:29:34.885Z,25.60
2023-05-24T12:32:03.192Z,25.60
2023-05-24T12:34:31.065Z,25.60
2023-05-24T12:36:58.858Z,25.60
2023-05-24T12:39:31.531Z,25.60
2023-05-24T12:42:01.966Z,25.60
2023-05-24T12:44:31.275Z,25.70
2023-05-24T12:46:59.690Z,25.70
2023-05-24T12:49:28.198Z,25.70
2023-05-24T12:51:57.386Z,25.70
2023-05-24T12:54:26.435Z,25.70
2023-05-24T12:56:57.476Z,25.70
2023-05-24T12:59:27.151Z,25.70
2023-05-24T13:01:54.959Z,25.70
2023-05-24T13:04:26.161Z,25.70
2023-05-24T13:06:54.343Z,25.70
2023-05-24T13:09:23.304Z,25.70
2023-05-24T13:11:52.113Z,25.70
2023-05-24T13:14:21.368Z,25.70
2023-05-24T13:16:49.783Z,25.60
2023-05-24T13:19:18.046Z,25.70
2023-05-24T13:21:45.851Z,25.70
2023-05-24T13:24:15.622Z,25.60
2023-05-24T13:26:43.433Z,25.60
2023-05-24T13:31:43.604Z,25.60
2023-05-24T13:34:11.778Z,25.60
2023-05-24T13:36:39.983Z,25.60
2023-05-24T13:41:41.113Z,25.60
2023-05-24T13:44:09.603Z,25.50
2023-05-24T13:46:37.546Z,25.50
2023-05-24T13:49:06.863Z,25.50
2023-05-24T13:51:34.772Z,25.50
2023-05-24T13:54:02.964Z,25.50
2023-05-24T13:56:33.090Z,25.50
2023-05-24T13:59:01.499Z,25.50
2023-05-24T14:01:30.247Z,25.50
2023-05-24T14:03:58.361Z,25.50
2023-05-24T14:06:27.493Z,25.50
2023-05-24T14:08:55.590Z,25.50
2023-05-24T14:11:24.707Z,25.50
2023-05-24T14:16:23.361Z,25.50
2023-05-24T14:18:51.656Z,25.50
2023-05-24T14:21:21.608Z,25.50
2023-05-24T14:23:51.153Z,25.50
2023-05-24T14:26:20.064Z,25.40
2023-05-24T14:28:47.843Z,25.40
2023-05-24T14:31:15.765Z,25.40
2023-05-24T14:33:43.520Z,25.40
2023-05-24T14:36:11.384Z,25.40
2023-05-24T14:38:39.143Z,25.40
2023-05-24T14:41:09.200Z,25.50
2023-05-24T14:43:37.824Z,25.40
2023-05-24T14:46:05.872Z,25.40
2023-05-24T14:48:33.650Z,25.40
2023-05-24T14:51:01.432Z,25.40
2023-05-24T14:53:29.312Z,25.50
2023-05-24T14:55:57.153Z,25.50
2023-05-24T14:58:26.478Z,25.40
2023-05-24T15:00:54.527Z,25.50
2023-05-24T15:03:23.042Z,25.50
2023-05-24T15:05:51.119Z,25.40
2023-05-24T15:08:18.952Z,25.50
2023-05-24T15:10:46.829Z,25.50
2023-05-24T15:13:14.700Z,25.40
2023-05-24T15:15:44.179Z,25.50
2023-05-24T15:18:12.047Z,25.50
2023-05-24T15:20:39.909Z,25.50
2023-05-24T15:23:10.560Z,25.50
2023-05-24T15:25:38.562Z,25.50
2023-05-24T15:28:06.494Z,25.50
2023-05-24T15:30:34.248Z,25.50
2023-05-24T15:33:03.365Z,25.50
2023-05-24T15:35:31.185Z,25.40
2023-05-24T15:37:58.984Z,25.50
2023-05-24T15:40:26.794Z,25.50
2023-05-24T15:42:54.688Z,25.50
2023-05-24T15:45:22.465Z,25.40
2023-05-24T15:47:50.435Z,25.50
2023-05-24T15:50:28.525Z,25.40
2023-05-24T15:53:00.097Z,25.40
2023-05-24T15:55:28.270Z,25.40
2023-05-24T15:57:57.630Z,25.40
2023-05-24T16:00:25.858Z,25.40
2023-05-24T16:02:55.658Z,25.40
2023-05-24T16:05:24.915Z,25.40
2023-05-24T16:07:52.665Z,25.40
2023-05-24T16:10:20.416Z,25.40
2023-05-24T16:12:48.180Z,25.40
2023-05-24T16:15:16.030Z,25.40
2023-05-24T16:17:44.667Z,25.40
2023-05-24T16:20:12.551Z,25.40
2023-05-24T16:22:48.647Z,25.40
2023-05-24T16:25:16.929Z,25.40
2023-05-24T16:27:44.787Z,25.40
2023-05-24T16:30:13.403Z,25.40
2023-05-24T16:32:41.250Z,25.40
2023-05-24T16:35:09.475Z,25.40
2023-05-24T16:37:37.277Z,25.40
2023-05-24T16:40:08.127Z,25.40
2023-05-24T16:42:36.000Z,25.40
2023-05-24T16:45:03.871Z,25.40
2023-05-24T16:47:32.384Z,25.40
2023-05-24T16:50:00.266Z,25.40
2023-05-24T16:52:28.112Z,25.40
2023-05-24T16:54:55.936Z,25.40
2023-05-24T16:57:25.016Z,25.40
2023-05-24T16:59:52.781Z,25.40
2023-05-24T17:02:20.629Z,25.40
2023-05-24T17:04:48.370Z,25.40
2023-05-24T17:07:16.204Z,25.40
2023-05-24T17:09:44.020Z,25.40
2023-05-24T17:12:11.753Z,25.40
2023-05-24T17:14:41.405Z,25.40
2023-05-24T17:17:10.546Z,25.40
2023-05-24T17:19:39.622Z,25.40
2023-05-24T17:22:08.551Z,25.40
2023-05-24T17:24:36.401Z,25.40
2023-05-24T17:27:04.851Z,25.40
2023-05-24T17:29:33.075Z,25.40
2023-05-24T17:32:02.275Z,25.40
2023-05-24T17:34:30.180Z,25.40
2023-05-24T17:36:57.936Z,25.40
2023-05-24T17:39:25.753Z,25.40
2023-05-24T17:41:53.511Z,25.40
2023-05-24T17:44:21.391Z,25.40
2023-05-24T17:46:49.236Z,25.40
2023-05-24T17:49:18.373Z,25.40
2023-05-24T17:51:46.192Z,25.40
2023-05-24T17:54:13.935Z,25.40
2023-05-24T17:56:41.714Z,25.40
2023-05-24T17:59:09.916Z,25.40
2023-05-24T18:01:37.922Z,25.50
2023-05-24T18:04:08.277Z,25.50
2023-05-24T18:06:37.619Z,25.50
2023-05-24T18:09:05.467Z,25.50
2023-05-24T18:11:33.187Z,25.50
2023-05-24T18:14:03.484Z,25.50
2023-05-24T18:16:31.524Z,25.60
2023-05-24T18:18:59.466Z,25.80
2023-05-24T18:21:27.295Z,25.80
2023-05-24T18:23:56.400Z,25.90
2023-05-24T18:26:24.182Z,26.00
2023-05-24T18:28:51.928Z,26.00
2023-05-24T18:31:20.300Z,26.00
2023-05-24T18:33:48.081Z,26.00
2023-05-24T18:36:15.810Z,26.00
2023-05-24T18:38:47.042Z,26.00
2023-05-24T18:41:16.511Z,25.90
2023-05-24T18:43:44.272Z,25.90
2023-05-24T18:46:13.621Z,25.90
2023-05-24T18:48:41.886Z,25.90
2023-05-24T18:51:09.898Z,25.80
2023-05-24T18:53:37.732Z,25.80
2023-05-24T18:56:05.910Z,25.80
2023-05-24T18:58:34.993Z,25.80
2023-05-24T19:01:02.868Z,25.80
2023-05-24T19:03:30.782Z,25.80
2023-05-24T19:05:58.581Z,25.80
2023-05-24T19:08:26.329Z,25.70
2023-05-24T19:10:54.058Z,25.70
2023-05-24T19:13:21.818Z,25.70
2023-05-24T19:15:50.922Z,25.70
2023-05-24T19:18:18.660Z,25.70
2023-05-24T19:20:46.404Z,25.70
2023-05-24T19:23:14.215Z,25.70
2023-05-24T19:25:43.824Z,25.60
2023-05-24T19:28:11.914Z,25.60
2023-05-24T19:30:39.667Z,25.60
2023-05-24T19:33:08.850Z,25.60
2023-05-24T19:35:37.241Z,25.60
2023-05-24T19:38:04.980Z,25.60
2023-05-24T19:40:32.744Z,25.60
2023-05-24T19:43:00.490Z,25.60
2023-05-24T19:45:28.479Z,25.60
2023-05-24T19:47:56.239Z,25.60
2023-05-24T19:50:28.434Z,25.60
2023-05-24T19:52:58.301Z,25.60
2023-05-24T19:55:26.042Z,25.50
2023-05-24T19:57:53.778Z,25.50
2023-05-24T20:00:21.512Z,25.50
2023-05-24T20:02:49.302Z,25.50
2023-05-24T20:05:17.438Z,25.50
2023-05-24T20:07:46.569Z,25.50
2023-05-24T20:10:14.418Z,25.50
2023-05-24T20:12:42.695Z,25.50
2023-05-24T20:15:12.267Z,25.50
2023-05-24T20:17:41.148Z,25.50
2023-05-24T20:20:09.811Z,25.50
2023-05-24T20:22:37.660Z,25.50
2023-05-24T20:25:07.794Z,25.50
2023-05-24T20:27:35.575Z,25.50
2023-05-24T20:30:03.350Z,25.50
2023-05-24T20:32:31.263Z,25.50
2023-05-24T20:34:59.054Z,25.50
2023-05-24T20:37:26.833Z,25.40
2023-05-24T20:39:54.616Z,25.40
2023-05-24T20:42:23.682Z,25.40
2023-05-24T20:44:51.430Z,25.40
2023-05-24T20:47:19.259Z,25.40
2023-05-24T20:49:47.088Z,25.40
2023-05-24T20:52:16.152Z,25.40
2023-05-24T20:54:44.031Z,25.40
2023-05-24T20:57:11.808Z,25.40
2023-05-24T20:59:40.941Z,25.40
2023-05-24T21:02:08.708Z,25.40
2023-05-24T21:04:36.481Z,25.40
2023-05-24T21:07:04.370Z,25.30
2023-05-24T21:09:32.124Z,25.40
2023-05-24T21:11:59.913Z,25.30
2023-05-24T21:14:27.655Z,25.30
2023-05-24T21:16:56.839Z,25.40
2023-05-24T21:19:25.088Z,25.30
2023-05-24T21:21:52.835Z,25.40
2023-05-24T21:24:20.638Z,25.30
2023-05-24T21:26:48.358Z,25.30
2023-05-24T21:29:16.096Z,25.30
2023-05-24T21:31:43.940Z,25.30
2023-05-24T21:34:13.260Z,25.30
2023-05-24T21:36:40.996Z,25.30
2023-05-24T21:39:09.573Z,25.30
2023-05-24T21:41:38.532Z,25.30
2023-05-24T21:44:07.977Z,25.30
2023-05-24T21:46:36.256Z,25.30
2023-05-24T21:49:04.157Z,25.30
2023-05-24T21:51:33.556Z,25.30
2023-05-24T21:54:01.393Z,25.30
2023-05-24T21:56:29.161Z,25.30
2023-05-24T21:58:56.961Z,25.30
2023-05-24T22:01:24.836Z,25.30
2023-05-24T22:03:53.079Z,25.30
2023-05-24T22:06:20.928Z,25.30
2023-05-24T22:08:49.969Z,25.30
2023-05-24T22:11:17.825Z,25.30
2023-05-24T22:13:45.669Z,25.30
2023-05-24T22:16:13.591Z,25.30
2023-05-24T22:18:41.352Z,25.30
2023-05-24T22:21:09.130Z,25.30
2023-05-24T22:23:37.261Z,25.30
2023-05-24T22:26:06.510Z,25.30
2023-05-24T22:28:50.716Z,25.30
2023-05-24T22:31:19.697Z,25.30
2023-05-24T22:33:47.725Z,25.20
2023-05-24T22:36:15.861Z,25.30
2023-05-24T22:38:45.162Z,25.30
2023-05-24T22:41:14.281Z,25.30
2023-05-24T22:43:42.018Z,25.30
2023-05-24T22:46:10.823Z,25.20
2023-05-24T22:48:40.462Z,25.30
2023-05-24T22:51:09.073Z,25.20
2023-05-24T22:53:39.106Z,25.30
2023-05-24T22:56:07.745Z,25.20
2023-05-24T22:58:37.465Z,25.20
2023-05-24T23:01:05.485Z,25.20
2023-05-24T23:03:33.401Z,25.20
2023-05-24T23:06:04.032Z,25.20
2023-05-24T23:08:32.754Z,25.20
2023-05-24T23:11:00.616Z,25.20
2023-05-24T23:13:32.961Z,25.20
2023-05-24T23:16:02.114Z,25.20
2023-05-24T23:18:29.884Z,25.20
2023-05-24T23:20:57.809Z,25.20
2023-05-24T23:23:25.690Z,25.20
2023-05-24T23:25:53.499Z,25.20
2023-05-24T23:28:21.315Z,25.20
2023-05-24T23:30:49.074Z,25.20
2023-05-24T23:33:18.182Z,25.20
2023-05-24T23:35:46.180Z,25.20
2023-05-24T23:38:14.488Z,25.20
2023-05-24T23:40:42.337Z,25.20
2023-05-24T23:43:10.298Z,25.20
2023-05-24T23:45:38.082Z,25.20
2023-05-24T23:48:06.294Z,25.20
2023-05-24T23:50:50.235Z,25.20
2023-05-24T23:53:21.656Z,25.20
2023-05-24T23:55:49.462Z,25.20
2023-05-24T23:58:17.393Z,25.20
